Time;durP1;ratioP1;P1;durP2;ratioP2;P2;SDS_P1;SDS_P2;PMS_P1;PMS_P2;Temp;Humidity;BMP_temperature;BMP_pressure;BME280_temperature;BME280_humidity;BME280_pressure;Samples;Min_cycle;Max_cycle;Signal;HPM_P1;HPM_P2
2022/11/17 00:00:43;;;;;;;7.63;5.32;;;2.60;99.90;;;0.86;93.72;100541.75;5000253;28;20572;-81
2022/11/17 00:03:24;;;;;;;7.35;4.78;;;2.60;99.90;;;0.99;93.20;100529.53;4956425;28;20113;-80
2022/11/17 00:05:51;;;;;;;6.05;4.13;;;2.60;99.90;;;0.87;92.86;100527.06;4984323;28;20030;-81
2022/11/17 00:08:24;;;;;;;6.13;3.80;;;2.70;99.90;;;0.85;92.72;100521.91;4980669;28;20022;-83
2022/11/17 00:10:50;;;;;;;5.18;3.53;;;2.60;99.90;;;0.78;92.58;100526.28;4983204;28;20030;-81
2022/11/17 00:16:00;;;;;;;6.90;4.68;;;2.60;99.90;;;0.86;92.85;100523.59;4999740;28;20104;-81
2022/11/17 00:21:18;;;;;;;11.70;4.75;;;2.70;99.90;;;0.91;92.04;100516.66;4983157;28;20034;-81
2022/11/17 00:23:49;;;;;;;4.43;3.63;;;2.70;99.90;;;0.83;91.95;100495.13;5004644;28;20399;-79
2022/11/17 00:26:25;;;;;;;4.38;3.30;;;2.70;99.90;;;0.86;91.75;100502.00;4979432;28;20086;-81
2022/11/17 00:29:03;;;;;;;6.53;3.15;;;2.70;99.90;;;0.82;91.87;100516.72;4979266;28;20686;-82
2022/11/17 00:34:22;;;;;;;7.30;2.60;;;2.70;99.90;;;0.87;92.13;100499.41;4976294;28;20045;-81
2022/11/17 00:36:51;;;;;;;4.32;2.90;;;2.70;99.90;;;0.88;91.74;100479.53;4981382;28;20615;-81
2022/11/17 00:39:21;;;;;;;3.58;2.65;;;2.60;99.90;;;0.71;92.14;100490.06;4965604;28;20052;-81
2022/11/17 00:41:47;;;;;;;5.20;3.80;;;2.60;99.90;;;0.79;92.12;100486.53;4972981;28;20151;-80
2022/11/17 00:44:13;;;;;;;5.20;3.55;;;2.60;99.90;;;0.84;91.95;100496.00;4975638;28;20119;-82
2022/11/17 00:46:40;;;;;;;7.18;4.18;;;2.60;99.90;;;0.81;91.79;100468.38;4981991;28;20086;-80
2022/11/17 00:49:13;;;;;;;6.40;4.00;;;2.60;99.90;;;0.75;91.97;100464.09;4981352;28;20109;-80
2022/11/17 00:51:39;;;;;;;8.85;4.63;;;2.60;99.90;;;0.75;92.21;100471.88;4981550;28;20121;-81
2022/11/17 00:54:09;;;;;;;8.40;4.32;;;2.60;99.90;;;0.72;92.17;100469.31;4965680;28;20027;-80
2022/11/17 00:56:40;;;;;;;5.90;3.83;;;2.50;99.90;;;0.66;92.09;100463.34;4964947;28;20041;-80
2022/11/17 00:59:06;;;;;;;5.35;2.35;;;2.50;99.90;;;0.51;92.45;100460.03;4979965;28;20094;-81
2022/11/17 01:01:32;;;;;;;6.30;4.63;;;2.40;99.90;;;0.58;92.81;100459.13;4998269;28;20124;-80
2022/11/17 01:04:01;;;;;;;7.53;4.95;;;2.40;99.90;;;0.56;92.76;100463.44;4979385;28;20025;-81
2022/11/17 01:06:48;;;;;;;7.57;4.40;;;2.40;99.90;;;0.60;92.82;100469.44;4993704;28;20026;-81
2022/11/17 01:09:23;;;;;;;6.20;4.32;;;2.40;99.90;;;0.58;92.60;100473.78;4997282;28;20554;-81
2022/11/17 01:11:52;;;;;;;5.40;3.55;;;2.30;99.90;;;0.47;92.76;100468.69;4982515;28;20106;-82
2022/11/17 01:14:25;;;;;;;6.60;4.35;;;2.30;99.90;;;0.43;92.81;100467.00;4991027;28;20030;-81
2022/11/17 01:17:00;;;;;;;6.20;4.07;;;2.30;99.90;;;0.38;93.36;100464.47;5011905;28;20031;-80
2022/11/17 01:19:25;;;;;;;7.43;2.67;;;2.30;99.90;;;0.38;93.33;100461.03;4982314;28;20022;-80
2022/11/17 01:21:51;;;;;;;6.38;3.70;;;2.20;99.90;;;0.35;93.16;100467.09;4982850;28;20797;-80
2022/11/17 01:24:17;;;;;;;5.32;3.78;;;2.20;99.90;;;0.30;93.87;100460.22;4982963;28;20106;-80
2022/11/17 01:26:48;;;;;;;7.00;4.32;;;2.20;99.90;;;0.36;94.23;100466.19;4982843;28;20029;-80
2022/11/17 01:29:18;;;;;;;7.32;4.80;;;2.20;99.90;;;0.43;94.05;100459.22;4983220;28;20304;-80
2022/11/17 01:31:48;;;;;;;6.60;4.32;;;2.20;99.90;;;0.46;93.57;100453.19;4984220;28;20550;-80
2022/11/17 01:34:18;;;;;;;7.05;4.22;;;2.20;99.90;;;0.42;93.52;100448.91;4985154;28;20027;-80
2022/11/17 01:39:32;;;;;;;6.75;4.50;;;2.20;99.90;;;0.42;93.73;100449.75;4987692;28;20040;-80
2022/11/17 01:42:08;;;;;;;7.07;4.65;;;2.30;99.90;;;0.51;93.41;100441.88;4983746;28;20022;-80
2022/11/17 01:45:15;;;;;;;5.70;3.60;;;2.30;99.90;;;0.55;93.33;100451.34;5003011;28;20446;-80
2022/11/17 01:47:53;;;;;;;3.95;2.17;;;2.20;99.90;;;0.38;93.03;100442.88;5001736;28;20532;-80
2022/11/17 01:50:34;;;;;;;5.07;2.85;;;2.30;99.90;;;0.38;93.27;100448.06;4982458;28;20073;-79
2022/11/17 01:53:06;;;;;;;7.07;4.57;;;2.20;99.90;;;0.42;93.21;100443.72;4983941;28;20597;-81
2022/11/17 01:55:41;;;;;;;5.40;3.50;;;2.30;99.90;;;0.48;93.24;100439.34;5006842;28;20023;-81
2022/11/17 01:58:40;;;;;;;7.75;3.80;;;2.30;99.90;;;0.55;92.99;100430.63;4983126;28;20057;-82
2022/11/17 02:01:06;;;;;;;5.28;3.35;;;2.40;99.90;;;0.57;92.96;100430.63;5003014;28;20577;-80
2022/11/17 02:03:35;;;;;;;4.78;2.72;;;2.40;99.90;;;0.50;93.07;100437.59;4984183;28;20034;-79
2022/11/17 02:06:25;;;;;;;6.38;4.57;;;2.40;99.90;;;0.64;93.35;100428.81;4984110;28;20061;-80
2022/11/17 02:08:58;;;;;;;7.15;3.97;;;2.40;99.90;;;0.61;92.65;100425.38;4985985;28;20092;-80
2022/11/17 02:11:24;;;;;;;3.40;2.65;;;2.40;99.90;;;0.55;92.51;100435.81;5010698;28;20030;-80
2022/11/17 02:13:53;;;;;;;9.15;3.95;;;2.30;99.90;;;0.48;92.32;100416.03;4986512;28;20031;-80
2022/11/17 02:16:25;;;;;;;8.07;3.90;;;2.30;99.90;;;0.51;92.73;100408.22;4970290;28;20619;-79
2022/11/17 02:18:50;;;;;;;4.47;3.00;;;2.40;99.90;;;0.49;92.75;100414.28;5003127;28;20034;-81
2022/11/17 02:21:57;;;;;;;5.82;4.35;;;2.30;99.90;;;0.52;92.41;100406.47;4986359;28;20029;-80
2022/11/17 02:24:53;;;;;;;6.65;4.30;;;2.30;99.90;;;0.47;92.46;100397.91;4982070;28;20039;-79
2022/11/17 02:28:08;;;;;;;5.85;4.05;;;2.30;99.90;;;0.46;92.29;100407.41;4984561;28;20029;-82
2022/11/17 02:31:26;;;;;;;7.75;4.40;;;2.30;99.90;;;0.34;92.21;100392.84;4972265;28;20053;-80
2022/11/17 02:34:42;;;;;;;5.05;2.88;;;2.20;99.90;;;0.32;92.97;100396.31;4999025;28;20037;-81
2022/11/17 02:38:01;;;;;;;5.13;3.25;;;2.20;99.90;;;0.32;92.84;100391.13;4970869;28;20121;-82
2022/11/17 02:40:47;;;;;;;5.38;3.75;;;2.10;99.90;;;0.26;93.65;100391.19;4968390;28;20046;-81
2022/11/17 02:46:22;;;;;;;5.25;3.38;;;2.20;99.90;;;0.31;93.66;100390.28;4983989;28;20045;-80
2022/11/17 02:49:04;;;;;;;5.80;4.05;;;2.20;99.90;;;0.36;93.30;100385.06;5006963;28;20498;-81
2022/11/17 02:51:38;;;;;;;5.90;3.95;;;2.10;99.90;;;0.28;93.12;100382.56;4982949;28;20034;-80
2022/11/17 02:54:04;;;;;;;5.60;3.45;;;2.20;99.90;;;0.31;93.62;100379.09;4983120;28;20034;-80
2022/11/17 02:56:30;;;;;;;5.47;3.83;;;2.20;99.90;;;0.45;92.71;100387.53;4984098;28;20434;-80
2022/11/17 02:59:03;;;;;;;4.90;3.35;;;2.20;99.90;;;0.45;92.63;100379.78;4984322;28;20065;-78
2022/11/17 03:02:32;;;;;;;8.23;3.00;;;2.20;99.90;;;0.23;93.11;100371.38;4999749;28;20079;-80
2022/11/17 03:05:29;;;;;;;;;;;2.10;99.90;;;0.28;93.39;100371.31;4984519;28;20064;-80
2022/11/17 03:08:54;;;;;;;4.47;2.85;;;2.10;99.90;;;0.17;93.49;100367.13;5002306;28;19921;-80
2022/11/17 03:11:28;;;;;;;7.15;4.10;;;2.10;99.90;;;0.23;93.58;100368.78;4986298;28;20077;-80
2022/11/17 03:14:14;;;;;;;4.75;3.28;;;2.00;99.90;;;0.24;93.86;100367.03;4991825;28;20034;-79
2022/11/17 03:17:00;;;;;;;5.60;4.03;;;2.10;99.90;;;0.32;93.86;100366.09;4986451;28;20050;-81
2022/11/17 03:19:36;;;;;;;6.57;4.20;;;2.10;99.90;;;0.34;93.78;100371.25;5004438;28;20070;-80
2022/11/17 03:22:11;;;;;;;8.15;2.92;;;2.10;99.90;;;0.28;93.45;100366.16;4998839;28;20039;-79
2022/11/17 03:24:48;;;;;;;5.00;3.53;;;2.00;99.90;;;0.22;93.69;100368.78;4982665;28;20035;-80
2022/11/17 03:27:25;;;;;;;4.32;3.05;;;2.10;99.90;;;0.26;93.55;100365.28;4982305;28;20035;-80
2022/11/17 03:30:01;;;;;;;5.43;3.10;;;2.10;99.90;;;0.28;94.23;100363.56;4984493;28;20034;-81
2022/11/17 03:32:29;;;;;;;;;;;2.20;99.90;;;0.37;93.87;100363.47;4984192;28;20050;-81
2022/11/17 03:35:02;;;;;;;3.25;2.05;;;2.10;99.90;;;0.29;93.84;100365.28;4980951;28;20001;-80
2022/11/17 03:37:31;;;;;;;4.97;3.35;;;2.20;99.90;;;0.36;93.89;100359.16;5008745;28;20046;-81
2022/11/17 03:40:10;;;;;;;5.38;3.30;;;2.10;99.90;;;0.36;93.32;100361.75;5007479;28;20035;-80
2022/11/17 03:42:46;;;;;;;5.85;4.00;;;2.10;99.90;;;0.25;93.38;100368.78;4982185;28;20125;-80
2022/11/17 03:45:21;;;;;;;5.95;3.75;;;2.10;99.90;;;0.29;93.66;100357.50;4984132;28;20027;-81
2022/11/17 03:47:56;;;;;;;6.13;3.80;;;2.10;99.90;;;0.22;94.00;100356.72;4983330;28;20046;-80
2022/11/17 03:51:06;;;;;;;4.50;2.90;;;2.00;99.90;;;0.25;93.74;100353.25;4981781;28;20034;-81
2022/11/17 03:53:33;;;;;;;5.85;3.90;;;2.00;99.90;;;0.22;94.34;100355.84;4996936;28;20038;-79
2022/11/17 03:56:30;;;;;;;6.38;3.60;;;2.10;99.90;;;0.24;94.25;100357.56;4981990;28;20038;-80
2022/11/17 03:59:07;;;;;;;;;;;2.10;99.90;;;0.04;94.66;100356.88;5005376;28;20049;-79
2022/11/17 04:01:35;;;;;;;5.40;3.70;;;1.90;99.90;;;0.04;94.63;100364.66;4996584;28;19922;-80
2022/11/17 04:04:01;;;;;;;4.50;3.22;;;1.90;99.90;;;0.05;94.79;100359.47;4981655;28;20030;-80
2022/11/17 04:06:32;;;;;;;5.57;3.53;;;1.90;99.90;;;0.10;95.36;100357.69;4998447;28;20511;-80
2022/11/17 04:08:57;;;;;;;8.00;3.35;;;1.90;99.90;;;0.11;94.84;100351.66;4980307;28;20664;-79
2022/11/17 04:16:52;;;;;;;3.63;2.40;;;1.90;99.90;;;0.07;95.03;100356.88;4981977;28;20201;-81
2022/11/17 04:19:21;;;;;;;4.07;2.45;;;1.90;99.90;;;0.01;95.18;100342.25;4981443;28;20031;-81
2022/11/17 04:21:47;;;;;;;5.47;3.25;;;1.90;99.90;;;0.06;95.47;100342.19;4980493;28;20038;-80
2022/11/17 04:24:13;;;;;;;5.30;3.03;;;1.90;99.90;;;0.12;95.27;100343.00;5008432;28;20057;-80
2022/11/17 04:29:23;;;;;;;4.72;3.25;;;2.00;99.90;;;0.26;95.14;100348.06;4983704;28;20049;-80
2022/11/17 04:31:52;;;;;;;4.05;2.65;;;2.00;99.90;;;0.17;95.21;100359.38;4979968;28;20097;-80
2022/11/17 04:34:18;;;;;;;4.95;3.55;;;2.10;99.90;;;0.27;95.01;100347.16;4981154;28;20515;-81
2022/11/17 04:36:44;;;;;;;4.55;3.10;;;2.10;99.90;;;0.34;94.76;100348.81;4980226;28;20061;-80
2022/11/17 04:39:13;;;;;;;4.47;3.15;;;2.10;99.90;;;0.32;94.55;100347.13;4981741;28;20057;-81
2022/11/17 04:41:56;;;;;;;4.53;2.92;;;2.10;99.90;;;0.32;94.82;100352.28;4980944;28;20144;-80
2022/11/17 04:44:27;;;;;;;3.30;1.88;;;2.20;99.90;;;0.28;94.66;100346.31;4982895;28;20094;-81
2022/11/17 04:46:54;;;;;;;6.25;3.13;;;2.20;99.90;;;0.36;94.72;100349.66;4973839;28;20042;-79
2022/11/17 04:49:21;;;;;;;5.03;3.30;;;2.20;99.90;;;0.44;94.68;100344.41;4981624;28;20053;-80
2022/11/17 04:51:54;;;;;;;3.03;2.20;;;2.20;99.90;;;0.39;94.43;100344.44;4979472;28;20117;-80
2022/11/17 04:54:23;;;;;;;5.25;3.42;;;2.30;99.90;;;0.45;94.32;100345.25;5008592;28;20081;-80
2022/11/17 04:56:50;;;;;;;5.97;3.35;;;2.30;99.90;;;0.49;93.99;100350.38;4975584;28;20047;-79
2022/11/17 04:59:24;;;;;;;4.45;2.83;;;2.30;99.90;;;0.50;94.41;100354.69;4979899;28;20027;-79
2022/11/17 05:01:50;;;;;;;5.25;3.30;;;2.30;99.90;;;0.61;93.92;100341.63;4983858;28;20023;-79
2022/11/17 05:04:54;;;;;;;4.53;3.20;;;2.30;99.90;;;0.58;93.88;100350.28;4963636;28;20027;-80
2022/11/17 05:07:07;;;;;;;5.55;3.45;;;2.40;99.90;;;0.63;93.82;100345.06;4981637;28;20043;-80
2022/11/17 05:09:33;;;;;;;4.43;3.08;;;2.40;99.90;;;0.65;93.92;100345.88;4979569;28;20511;-80
2022/11/17 05:14:46;;;;;;;3.05;2.50;;;2.50;99.90;;;0.72;93.51;100339.75;4980161;28;20700;-78
2022/11/17 05:17:15;;;;;;;5.45;3.28;;;2.50;99.90;;;0.76;93.43;100338.00;4979330;28;20087;-79
2022/11/17 05:19:43;;;;;;;5.15;3.40;;;2.50;99.90;;;0.78;93.68;100341.41;4980278;28;20026;-80
2022/11/17 05:25:13;;;;;;;3.65;2.75;;;2.50;99.90;;;0.72;93.75;100328.53;4982172;28;20118;-78
2022/11/17 05:27:39;;;;;;;4.38;3.10;;;2.50;99.90;;;0.80;93.79;100337.06;4979110;28;20042;-79
2022/11/17 05:30:07;;;;;;;4.43;3.30;;;2.50;99.90;;;0.72;93.97;100326.78;4965100;28;20170;-78
2022/11/17 05:32:33;;;;;;;6.57;3.92;;;2.50;99.90;;;0.81;94.15;100323.22;4979206;28;20047;-78
2022/11/17 05:35:03;;;;;;;5.00;3.47;;;2.50;99.90;;;0.78;94.52;100331.91;4997688;28;20062;-78
2022/11/17 05:37:29;;;;;;;5.65;3.40;;;2.60;99.90;;;0.80;94.37;100330.16;4979523;28;20049;-79
2022/11/17 05:39:55;;;;;;;6.15;4.20;;;2.60;99.90;;;0.77;94.25;100314.63;4978776;28;20114;-79
2022/11/17 05:42:21;;;;;;;6.82;4.07;;;2.60;99.90;;;0.93;94.18;100320.47;4979317;28;20553;-79
2022/11/17 05:44:47;;;;;;;8.70;5.05;;;2.70;99.90;;;0.93;94.22;100312.69;4977289;28;20432;-79
2022/11/17 05:47:13;;;;;;;5.00;3.75;;;2.70;99.90;;;1.01;93.84;100326.38;4984270;28;20068;-78
2022/11/17 05:49:47;;;;;;;5.97;3.72;;;2.70;99.90;;;0.88;93.91;100313.63;4982019;28;20750;-77
2022/11/17 05:52:13;;;;;;;5.70;3.85;;;2.70;99.90;;;0.95;93.75;100310.06;5007694;28;20027;-78
2022/11/17 05:54:39;;;;;;;5.53;3.67;;;2.80;99.90;;;1.02;93.45;100315.16;4981081;28;20110;-78
2022/11/17 05:57:18;;;;;;;4.90;3.65;;;2.80;99.90;;;1.02;92.96;100319.50;5001269;28;20445;-78
2022/11/17 05:59:58;;;;;;;5.55;3.17;;;2.80;99.90;;;1.04;92.60;100325.50;4984086;28;20030;-78
2022/11/17 06:02:32;;;;;;;6.03;3.08;;;2.80;99.90;;;0.92;92.41;100323.06;4977396;28;20492;-77
2022/11/17 06:04:57;;;;;;;5.10;4.03;;;2.80;99.90;;;1.02;92.14;100324.69;4985498;28;20772;-79
2022/11/17 06:07:23;;;;;;;6.15;3.65;;;2.80;99.90;;;1.08;92.19;100316.81;4984153;28;20091;-79
2022/11/17 06:09:50;;;;;;;4.43;2.78;;;2.80;99.90;;;1.00;91.92;100322.09;4982698;28;20483;-79
2022/11/17 06:12:16;;;;;;;4.25;3.25;;;2.80;99.90;;;0.98;92.09;100321.25;4961721;28;20049;-79
2022/11/17 06:14:42;;;;;;;5.50;3.55;;;2.80;99.90;;;1.05;91.70;100321.19;4981976;28;20073;-79
2022/11/17 06:17:17;;;;;;;5.05;3.58;;;2.80;99.90;;;1.01;91.62;100310.84;4985181;28;20128;-79
2022/11/17 06:19:57;;;;;;;6.23;2.73;;;2.80;99.90;;;0.98;91.13;100313.47;4981183;28;20049;-78
2022/11/17 06:22:25;;;;;;;5.95;3.65;;;2.80;99.90;;;1.07;90.74;100306.47;4986098;28;20031;-78
2022/11/17 06:25:01;;;;;;;4.22;2.42;;;2.90;99.90;;;1.00;90.74;100322.09;4966968;28;20407;-78
2022/11/17 06:27:29;;;;;;;5.43;3.90;;;2.80;99.90;;;0.99;90.67;100311.75;4983563;28;20022;-78
2022/11/17 06:29:58;;;;;;;5.07;3.10;;;2.80;99.90;;;0.99;90.82;100309.16;5005126;28;20038;-78
2022/11/17 06:32:23;;;;;;;4.75;3.20;;;2.80;99.90;;;1.07;90.82;100314.25;4983294;28;20443;-79
2022/11/17 06:34:50;;;;;;;4.88;2.80;;;2.80;99.90;;;0.97;90.56;100322.16;4982302;28;20045;-78
2022/11/17 06:37:15;;;;;;;4.97;3.47;;;2.80;99.90;;;1.09;90.68;100317.66;4979416;28;20034;-78
2022/11/17 06:39:41;;;;;;;5.13;3.10;;;2.90;99.90;;;1.18;90.55;100327.91;4968680;28;20045;-79
2022/11/17 06:42:07;;;;;;;4.25;3.20;;;2.90;99.90;;;1.18;90.31;100320.13;5008877;28;20112;-78
2022/11/17 06:44:33;;;;;;;4.20;2.97;;;2.90;99.90;;;1.18;89.80;100313.19;4981585;28;20034;-78
2022/11/17 06:47:03;;;;;;;4.57;3.03;;;3.00;99.90;;;1.19;89.53;100316.66;5000371;28;20054;-79
2022/11/17 06:49:29;;;;;;;5.90;3.38;;;3.00;99.90;;;1.25;89.34;100307.91;4982925;28;20046;-77
2022/11/17 06:51:55;;;;;;;3.75;2.50;;;2.90;99.90;;;1.07;89.66;100306.47;4977383;28;20088;-78
2022/11/17 06:54:21;;;;;;;4.70;3.33;;;2.90;99.90;;;1.21;89.29;100305.38;4984776;28;20073;-80
2022/11/17 06:56:48;;;;;;;4.80;2.80;;;3.00;99.90;;;1.22;89.40;100307.06;4980997;28;20050;-78
2022/11/17 06:59:14;;;;;;;4.88;2.58;;;3.00;99.90;;;1.23;89.34;100310.53;4983948;28;20129;-78
2022/11/17 07:01:43;;;;;;;5.07;3.50;;;3.00;99.90;;;1.26;89.42;100307.91;4998991;28;20026;-79
2022/11/17 07:04:09;;;;;;;5.22;3.55;;;3.00;99.90;;;1.35;89.29;100305.16;4985919;28;20022;-77
2022/11/17 07:06:36;;;;;;;3.05;2.42;;;3.00;99.90;;;1.21;89.13;100304.53;4977184;28;20061;-78
2022/11/17 07:09:03;;;;;;;5.72;2.47;;;2.90;99.90;;;1.10;89.34;100298.63;4982750;28;20050;-79
2022/11/17 07:11:29;;;;;;;4.70;2.78;;;2.90;99.90;;;1.13;89.54;100293.41;4981117;28;20030;-78
2022/11/17 07:14:05;;;;;;;5.00;3.28;;;3.00;99.90;;;1.27;89.43;100295.78;4965340;28;20133;-78
2022/11/17 07:16:31;;;;;;;3.22;2.38;;;3.00;99.90;;;1.24;89.50;100286.31;4980903;28;20113;-78
2022/11/17 07:18:58;;;;;;;6.30;2.42;;;3.00;99.90;;;1.17;89.29;100293.34;4979596;28;20041;-77
2022/11/17 07:21:32;;;;;;;5.22;2.45;;;3.00;99.90;;;1.26;89.13;100274.19;4981740;28;20402;-79
2022/11/17 07:23:58;;;;;;;4.78;2.45;;;3.00;99.90;;;1.25;89.20;100281.97;4965517;28;20027;-80
2022/11/17 07:26:24;;;;;;;7.10;3.05;;;3.10;99.90;;;1.34;88.88;100281.81;4978156;28;20041;-79
2022/11/17 07:28:50;;;;;;;9.85;3.10;;;3.10;99.90;;;1.41;88.71;100278.28;4983018;28;20033;-79
2022/11/17 07:31:23;;;;;;;3.45;2.78;;;3.10;99.90;;;1.32;88.05;100261.13;4964335;28;20145;-78
2022/11/17 07:33:49;;;;;;;5.20;3.17;;;3.20;99.90;;;1.43;87.81;100269.56;4979105;28;20042;-78
2022/11/17 07:36:15;;;;;;;4.15;3.05;;;3.10;99.90;;;1.46;87.88;100266.06;4996971;28;20530;-76
2022/11/17 07:38:41;;;;;;;4.70;3.00;;;3.20;99.90;;;1.56;87.48;100266.78;4981603;28;20034;-79
2022/11/17 07:41:13;;;;;;;5.85;3.25;;;3.30;99.90;;;1.67;87.73;100270.03;4980476;28;20046;-77
2022/11/17 07:43:39;;;;;;;3.63;2.70;;;3.30;99.90;;;1.61;87.01;100265.81;5005556;28;20050;-78
2022/11/17 07:46:09;;;;;;;4.30;3.20;;;3.30;99.90;;;1.53;87.61;100265.06;4966339;28;20094;-79
2022/11/17 07:48:37;;;;;;;3.35;2.50;;;3.30;99.90;;;1.51;87.11;100271.19;4981744;28;20594;-78
2022/11/17 07:51:04;;;;;;;4.57;3.40;;;3.30;99.90;;;1.60;87.15;100260.66;4979371;28;20034;-77
2022/11/17 07:53:32;;;;;;;5.10;3.17;;;3.40;99.90;;;1.64;87.13;100262.31;4989846;28;20034;-79
2022/11/17 07:56:10;;;;;;;5.03;2.33;;;3.40;99.90;;;1.66;87.25;100265.72;4972793;28;20036;-79
2022/11/17 07:58:36;;;;;;;6.05;3.03;;;3.50;99.90;;;1.79;86.84;100275.03;5007673;28;20027;-79
2022/11/17 08:01:09;;;;;;;4.75;3.50;;;3.50;99.90;;;1.93;86.92;100281.72;4987359;28;20031;-78
2022/11/17 08:03:37;;;;;;;3.00;1.95;;;3.60;99.90;;;1.84;86.54;100285.34;4968386;28;20249;-79
2022/11/17 08:06:15;;;;;;;;;;;;;;;;;;;;;
2022/11/17 08:08:41;;;;;;;4.70;3.30;;;3.50;99.90;;;1.63;86.53;100282.22;5008532;28;20090;-78
2022/11/17 08:11:11;;;;;;;3.08;2.35;;;3.50;99.90;;;1.67;86.53;100277.00;5003684;28;20034;-79
2022/11/17 08:13:39;;;;;;;4.75;3.17;;;3.50;99.90;;;1.68;86.79;100270.91;4984936;28;20026;-80
2022/11/17 08:16:09;;;;;;;5.32;3.22;;;3.50;99.90;;;1.75;86.67;100269.91;4970985;28;20022;-79
2022/11/17 08:18:37;;;;;;;6.70;3.75;;;3.50;99.90;;;1.81;86.59;100268.06;4983006;28;20033;-79
2022/11/17 08:21:12;;;;;;;3.92;3.00;;;3.50;99.90;;;1.82;86.39;100272.38;4984790;28;20031;-79
2022/11/17 08:23:39;;;;;;;6.82;2.47;;;3.50;99.90;;;1.68;86.11;100276.09;5005740;28;20026;-79
2022/11/17 08:26:09;;;;;;;5.07;3.65;;;3.50;99.90;;;1.73;86.26;100275.13;4980921;28;20027;-78
2022/11/17 08:28:44;;;;;;;3.78;2.40;;;3.40;99.90;;;1.64;86.58;100265.78;4979843;28;20399;-78
2022/11/17 08:31:10;;;;;;;4.90;3.03;;;3.40;99.90;;;1.58;86.10;100265.88;4982937;28;20034;-78
2022/11/17 08:33:36;;;;;;;2.92;1.85;;;3.40;99.90;;;1.49;86.46;100275.53;4982563;28;20041;-78
2022/11/17 08:36:11;;;;;;;5.32;3.28;;;3.30;99.90;;;1.55;86.46;100268.50;4975002;28;20529;-78
2022/11/17 08:38:37;;;;;;;4.32;3.10;;;3.40;99.90;;;1.70;86.09;100275.16;4975026;28;20062;-77
2022/11/17 08:41:06;;;;;;;6.22;3.10;;;3.40;99.90;;;1.77;86.27;100279.41;4982378;28;20499;-78
2022/11/17 08:43:33;;;;;;;4.82;3.50;;;3.50;99.90;;;1.76;85.94;100282.84;5000744;28;20029;-79
2022/11/17 08:46:02;;;;;;;9.75;3.53;;;3.50;99.90;;;1.77;85.66;100276.81;4981287;28;20054;-77
2022/11/17 08:48:28;;;;;;;5.53;2.95;;;3.50;99.90;;;1.81;85.76;100280.19;4981113;28;20066;-79
2022/11/17 08:50:54;;;;;;;3.97;2.97;;;3.60;99.90;;;1.95;85.38;100280.78;4979716;28;20027;-79
2022/11/17 08:53:22;;;;;;;5.10;2.80;;;3.60;99.90;;;1.87;85.40;100284.41;4962428;28;20065;-79
2022/11/17 08:55:52;;;;;;;5.72;3.30;;;3.60;99.90;;;1.81;85.30;100273.28;4980041;28;20033;-78
2022/11/17 08:58:17;;;;;;;11.13;3.47;;;3.60;99.90;;;1.92;84.93;100282.59;4981867;28;20022;-77
2022/11/17 09:00:46;;;;;;;3.80;2.67;;;3.60;99.90;;;1.72;84.91;100270.81;4977383;28;20065;-78
2022/11/17 09:03:13;;;;;;;5.93;2.60;;;3.50;99.90;;;1.79;85.30;100279.34;4976261;28;20027;-77
2022/11/17 09:05:45;;;;;;;4.60;2.97;;;3.60;99.90;;;1.76;85.44;100269.88;4976509;28;20042;-79
2022/11/17 09:08:13;;;;;;;7.10;3.30;;;3.50;99.90;;;1.72;85.50;100273.41;4978611;28;20033;-78
2022/11/17 09:10:40;;;;;;;5.28;3.70;;;3.60;99.90;;;1.91;85.04;100283.47;4960712;28;20046;-78
2022/11/17 09:13:06;;;;;;;13.00;2.33;;;3.70;99.90;;;1.92;84.92;100290.38;4976417;28;20046;-78
2022/11/17 09:15:36;;;;;;;5.05;3.50;;;3.60;99.90;;;1.91;84.89;100291.28;4979648;28;20866;-78
2022/11/17 09:18:02;;;;;;;5.28;3.08;;;3.70;99.90;;;1.94;84.69;100273.88;4980339;28;20046;-79
2022/11/17 09:20:34;;;;;;;5.03;3.63;;;3.60;99.90;;;1.92;84.80;100285.19;4963604;28;20050;-79
2022/11/17 09:23:04;;;;;;;5.78;3.88;;;3.60;99.90;;;1.85;84.93;100274.91;4982519;28;20035;-77
2022/11/17 09:25:34;;;;;;;5.40;3.35;;;3.60;99.90;;;1.89;84.50;100285.25;4982637;28;20117;-77
2022/11/17 09:28:00;;;;;;;5.10;3.60;;;3.60;99.90;;;1.95;84.58;100282.53;5000840;28;20481;-78
2022/11/17 09:30:33;;;;;;;6.40;3.42;;;3.60;99.90;;;1.96;84.11;100277.31;4976762;28;20034;-79
2022/11/17 09:33:16;;;;;;;5.35;3.38;;;3.70;99.90;;;2.03;84.26;100278.03;4982905;28;20030;-80
2022/11/17 09:35:55;;;;;;;5.95;3.20;;;3.80;99.90;;;2.04;84.30;100274.56;4987601;28;20543;-78
2022/11/17 09:38:29;;;;;;;5.72;3.75;;;3.70;99.90;;;1.97;83.87;100273.84;4984805;28;20034;-78
2022/11/17 09:41:08;;;;;;;4.80;2.92;;;3.70;99.90;;;1.85;83.85;100277.50;4983839;28;20038;-79
2022/11/17 09:43:40;;;;;;;5.80;3.97;;;3.70;99.90;;;1.97;83.79;100284.22;4996642;28;20062;-77
2022/11/17 09:47:06;;;;;;;4.65;3.55;;;3.70;99.90;;;2.12;84.14;100277.88;4985718;28;20038;-78
2022/11/17 09:50:16;;;;;;;4.88;3.72;;;3.80;99.90;;;2.27;83.94;100268.94;4973817;28;20069;-79
2022/11/17 09:53:17;;;;;;;4.05;2.95;;;3.90;99.90;;;2.14;82.95;100270.94;4968405;28;20026;-78
2022/11/17 09:56:11;;;;;;;3.42;2.83;;;3.80;99.90;;;2.04;83.40;100279.78;5007406;28;20034;-78
2022/11/17 09:58:52;;;;;;;6.88;3.95;;;3.90;99.90;;;2.22;83.62;100283.75;4987947;28;20106;-78
2022/11/17 10:01:21;;;;;;;5.97;3.78;;;3.90;99.90;;;2.30;83.47;100276.66;5000602;28;20037;-79
2022/11/17 10:03:55;;;;;;;7.05;3.92;;;4.00;99.90;;;2.26;83.29;100275.88;4974759;28;20129;-78
2022/11/17 10:06:49;;;;;;;7.57;3.85;;;4.00;99.90;;;2.38;83.08;100272.19;4986794;28;20023;-80
2022/11/17 10:09:35;;;;;;;3.03;2.03;;;4.00;99.90;;;2.25;83.05;100276.75;4985308;28;20038;-79
2022/11/17 10:12:18;;;;;;;5.43;4.32;;;3.90;99.90;;;2.23;82.94;100262.94;5004667;28;20617;-80
2022/11/17 10:14:52;;;;;;;5.68;3.80;;;4.00;99.90;;;2.35;82.21;100259.22;4980443;28;20045;-79
2022/11/17 10:17:21;;;;;;;4.47;2.97;;;4.00;99.90;;;2.30;82.18;100255.03;4979924;28;20039;-80
2022/11/17 10:19:52;;;;;;;5.05;3.95;;;4.00;99.90;;;2.38;82.04;100260.94;4996372;28;20030;-78
2022/11/17 10:22:38;;;;;;;5.43;4.10;;;4.10;99.90;;;2.53;81.93;100259.75;4979644;28;20411;-78
2022/11/17 10:25:19;;;;;;;4.97;3.85;;;4.20;99.90;;;2.55;81.79;100257.97;4978804;28;20043;-79
2022/11/17 10:27:54;;;;;;;6.65;4.00;;;4.20;99.90;;;2.61;81.83;100250.91;4965789;28;20034;-79
2022/11/17 10:30:23;;;;;;;4.83;3.57;;;4.20;99.90;;;2.55;81.44;100257.97;5004235;28;20089;-79
2022/11/17 10:32:57;;;;;;;5.70;3.95;;;4.20;99.90;;;2.54;81.72;100256.28;4978354;28;20614;-78
2022/11/17 10:35:36;;;;;;;4.93;2.45;;;4.30;99.90;;;2.52;81.04;100256.28;4977465;28;20057;-79
2022/11/17 10:38:33;;;;;;;5.03;2.83;;;4.20;99.90;;;2.49;80.96;100239.94;4981176;28;20041;-79
2022/11/17 10:41:03;;;;;;;3.80;2.78;;;4.30;99.90;;;2.58;81.06;100235.38;4997407;28;20022;-79
2022/11/17 10:43:34;;;;;;;5.18;4.00;;;4.40;99.90;;;2.82;80.90;100230.53;4977790;28;20034;-78
2022/11/17 10:46:11;;;;;;;5.82;3.95;;;4.50;99.90;;;2.89;80.65;100234.69;4987540;28;20074;-82
2022/11/17 10:48:52;;;;;;;4.97;2.60;;;4.40;99.90;;;2.69;79.89;100236.88;5002358;28;20026;-80
2022/11/17 10:51:23;;;;;;;6.63;3.85;;;4.50;99.90;;;2.81;80.53;100232.28;4973438;28;20023;-80
2022/11/17 10:54:19;;;;;;;7.95;3.78;;;4.50;99.90;;;2.94;80.66;100238.06;5007730;28;20050;-77
2022/11/17 10:56:59;;;;;;;3.70;2.63;;;4.60;99.90;;;2.86;80.13;100237.38;4993175;28;20121;-77
2022/11/17 10:59:41;;;;;;;6.63;3.22;;;4.50;99.90;;;2.75;80.15;100218.56;4973834;28;20054;-78
2022/11/17 11:02:37;;;;;;;6.05;3.75;;;4.60;99.90;;;3.00;80.25;100244.84;4981984;28;20049;-78
2022/11/17 11:05:17;;;;;;;6.63;3.72;;;4.50;99.90;;;2.96;80.19;100238.88;5005704;28;20125;-77
2022/11/17 11:07:47;;;;;;;6.57;4.03;;;4.60;99.90;;;3.02;80.34;100228.34;4978477;28;20080;-78
2022/11/17 11:10:29;;;;;;;3.50;2.53;;;4.70;99.90;;;3.17;80.14;100232.28;4988190;28;20113;-78
2022/11/17 11:13:16;;;;;;;4.75;3.78;;;4.90;99.90;;;3.44;79.52;100233.38;4995003;28;20088;-78
2022/11/17 11:15:43;;;;;;;6.13;3.45;;;5.00;99.90;;;3.43;78.66;100231.66;5001105;28;20078;-78
2022/11/17 11:18:17;;;;;;;10.00;3.22;;;5.10;99.90;;;3.53;78.29;100226.22;4974190;28;20034;-78
2022/11/17 11:21:11;;;;;;;6.80;2.63;;;5.20;99.90;;;3.76;77.85;100223.00;4977183;28;20044;-77
2022/11/17 11:24:01;;;;;;;5.53;3.75;;;5.30;99.90;;;4.13;77.35;100230.69;4974583;28;20038;-78